XCM weather

Chatham Kent Airport
Chatham-Kent, Ontario, Canada

Public forecast

Using degrees Celsius for public forecast. Weather courtesy of forecast.io.

METAR (pilot weather report)

Retrieved 2019/05/24 14:00 UTC (18 minutes ago):

CYCK 241400Z AUTO 01006KT 330V040 9SM CLR 17/11 A3016 RMK SLP213 DENSITY ALT 700FT

TAF (pilot weather forecast)

Closest forecast is Selfridge Air National Guard Base Airport, 38.2 nm (70.7 km) WNW. Retrieved 2019/05/24 09:25 UTC (5 hours ago):

TAF KMTC 240900Z 2409/2515 26009KT 9999 SCT090 QNH3004INS BECMG 2412/2413 VRB06KT 9999 SCT020 BKN150 QNH3010INS BECMG 2423/2424 VRB06KT 9999 BKN020 OVC050 QNH3003INS BECMG 2505/2506 15009KT 8000 -SHRA FEW012 BKN045 QNH3002INS BECMG 2508/2509 18009KT 6000 -SHRA BKN012 OVC030 QNH2996INS BECMG 2514/2515 19009KT 8000 -RA SCT020 BKN040 QNH2991INS TX17/2420Z TN12/2410Z NO AMDS 2409 TIL 2411